STS Pogoria — SQKY — position and weather

sailwx.info

Track history (hours):
 
Tides and Currents Weather Stations Pressure Air Temp Water Temp Dewpoint Dewpoint Depression Visibility Wind Speed Wind Dir Waves Ship Positions

STS Pogoria

Last reported at 2019-Jun-16 16:17 UTC. Time now 2019-Jun-17 18:40 UTC.
Position N 53°27' E 005°13'.

Length 47 m.

Type: Sailing vessel. MMSI: 261146000.

Date/timePositionNaut miles runAvg speedWind from/ knotsBaromVisibWave heightAir tempDewpointWater temp
2019-Jun-16 16:17N 53°27' E 005°13'2 6.5
2019-Jun-16 15:57N 53°26' E 005°09'3 7.1
2019-Jun-16 15:29N 53°25' E 005°04'5 6.7
2019-Jun-16 14:45N 53°22' E 004°57'15 5.9
2019-Jun-16 12:08N 53°09' E 004°44'1 4.9
2019-Jun-16 12:00N 53°09' E 004°43'2 4.3
2019-Jun-16 11:30N 53°07' E 004°41'2 4.0
2019-Jun-16 11:00N 53°06' E 004°38'2 4.3
2019-Jun-16 10:30N 53°05' E 004°35'2 4.3
2019-Jun-16 10:00N 53°04' E 004°32'2 4.0
2019-Jun-16 09:29N 53°03' E 004°28'2 3.9
2019-Jun-16 08:59N 53°02' E 004°27'2 3.9
2019-Jun-16 08:29N 52°60' E 004°25'2 4.1
2019-Jun-16 07:59N 52°58' E 004°24'2 4.4
2019-Jun-16 07:29N 52°56' E 004°23'1 2.8
2019-Jun-16 06:59N 52°55' E 004°23'3 5.6
2019-Jun-16 06:29N 52°52' E 004°23'4 7.1
2019-Jun-16 05:59N 52°48' E 004°22'4 7.3
2019-Jun-16 05:29N 52°45' E 004°22'10 7.6
2019-Jun-16 04:07N 52°34' E 004°22'1 7.6
2019-Jun-16 03:57N 52°33' E 004°22'3 6.8
2019-Jun-16 03:29N 52°30' E 004°23'4 7.4
2019-Jun-16 03:00N 52°26' E 004°22'4 8.3
2019-Jun-16 02:30N 52°22' E 004°20'4 8.8
2019-Jun-16 02:00N 52°18' E 004°19'4 8.9
2019-Jun-16 01:30N 52°14' E 004°17'4 8.7
2019-Jun-16 01:00N 52°10' E 004°14'4 8.7
2019-Jun-16 00:30N 52°07' E 004°09'4 8.2
2019-Jun-16 00:00N 52°03' E 004°05'4 8.0
2019-Jun-15 23:30N 52°01' E 004°00'3 6.9
2019-Jun-15 23:00N 51°59' E 003°56'3 6.1
2019-Jun-15 22:30N 51°57' E 003°52'41 5.4
2019-Jun-15 15:02N 51°29' E 003°04'3 7.0
2019-Jun-15 14:35N 51°26' E 003°02'1 7.2
2019-Jun-15 14:26N 51°25' E 003°03'9 2.0
2019-Jun-15 09:57N 51°19' E 003°12'3 5.0
2019-Jun-15 09:24N 51°16' E 003°13'2 0.5
2019-Jun-15 04:46N 51°14' E 003°14'0 0.0
2019-Jun-15 04:00N 51°14' E 003°14'0 0.0
2019-Jun-14 23:57N 51°14' E 003°14'0 0.0
2019-Jun-14 23:27N 51°14' E 003°14'0 0.0
2019-Jun-14 23:00N 51°14' E 003°14'0 0.0
2019-Jun-14 22:30N 51°14' E 003°14'0 0.0
2019-Jun-14 22:00N 51°14' E 003°14'0 0.0
2019-Jun-14 21:27N 51°14' E 003°14'0 0.0
2019-Jun-14 20:57N 51°14' E 003°14'0 0.0
2019-Jun-14 20:30N 51°14' E 003°14'0 0.0
2019-Jun-14 19:57N 51°14' E 003°14'0 0.0
2019-Jun-14 19:27N 51°14' E 003°14'0 0.0
2019-Jun-14 18:57N 51°14' E 003°14'0 0.0
2019-Jun-14 18:30N 51°14' E 003°14'0 0.0
2019-Jun-14 17:57N 51°14' E 003°14'0 0.0
2019-Jun-14 17:27N 51°14' E 003°14'0 0.0
2019-Jun-14 16:57N 51°14' E 003°14'0 0.0
2019-Jun-14 16:27N 51°14' E 003°14'9 1.2
2019-Jun-14 08:38N 51°23' E 003°10'2 7.2
2019-Jun-14 08:19N 51°24' E 003°07'2 7.0
2019-Jun-14 08:00N 51°24' E 003°03'4 6.0
2019-Jun-14 07:20N 51°22' E 002°58'2 5.1
2019-Jun-14 06:54N 51°22' E 002°54'2 3.7
2019-Jun-14 06:15N 51°22' E 002°50'0 1.6
2019-Jun-14 05:57N 51°22' E 002°50'1 2.6
2019-Jun-14 05:26N 51°22' E 002°47'1 2.8
2019-Jun-14 05:00N 51°22' E 002°46'2 3.1
2019-Jun-14 04:27N 51°21' E 002°43'2 3.2
2019-Jun-14 03:55N 51°21' E 002°40'1 3.4
2019-Jun-14 03:30N 51°21' E 002°38'1 1.7
2019-Jun-14 02:57N 51°22' E 002°36'1 1.3
2019-Jun-14 02:29N 51°22' E 002°36'1 2.3
2019-Jun-14 02:00N 51°22' E 002°34'2 4.0
2019-Jun-14 01:27N 51°21' E 002°30'3 5.1
2019-Jun-14 00:58N 51°20' E 002°27'3 5.7
2019-Jun-14 00:30N 51°18' E 002°25'3 5.4
2019-Jun-13 23:56N 51°16' E 002°22'3 6.6
2019-Jun-13 23:30N 51°15' E 002°17'3 6.3
2019-Jun-13 23:00N 51°13' E 002°13'3 6.1
2019-Jun-13 22:27N 51°10' E 002°10'4 6.8
2019-Jun-13 21:53N 51°07' E 002°06'3 7.0
2019-Jun-13 21:24N 51°06' E 002°01'2 5.6
2019-Jun-13 20:57N 51°05' E 001°57'6 6.6
2019-Jun-13 19:59N 51°02' E 001°48'87 5.8
2019-Jun-13 04:51N 50°08' E 000°01'3 8.4
2019-Jun-13 04:29N 50°07' W 000°03'5 8.9
2019-Jun-13 03:58N 50°05' W 000°10'4 8.6
2019-Jun-13 03:29N 50°03' W 000°16'4 8.2
2019-Jun-13 03:00N 50°02' W 000°22'4 7.9
2019-Jun-13 02:30N 49°60' W 000°27'4 7.4
2019-Jun-13 01:56N 49°58' W 000°33'4 6.6
2019-Jun-13 01:21N 49°57' W 000°39'10 5.8
2019-Jun-12 23:33N 49°53' W 000°53'1 5.2
2019-Jun-12 23:25N 49°52' W 000°54'2 5.0
2019-Jun-12 23:00N 49°52' W 000°57'2 4.7
2019-Jun-12 22:30N 49°51' W 001°01'2 4.5
2019-Jun-12 22:00N 49°50' W 001°04'2 4.4
2019-Jun-12 21:30N 49°49' W 001°07'2 4.3
2019-Jun-12 21:00N 49°49' W 001°10'2 4.2
2019-Jun-12 20:30N 49°48' W 001°13'2 4.5
2019-Jun-12 20:00N 49°47' W 001°16'2 4.6
2019-Jun-12 19:30N 49°46' W 001°20'2 5.0
2019-Jun-12 19:00N 49°45' W 001°23'3 5.8
2019-Jun-12 18:31N 49°44' W 001°28'3 6.6
2019-Jun-12 18:00N 49°42' W 001°32'3 6.4
2019-Jun-12 17:30N 49°40' W 001°36'2 4.6
2019-Jun-12 16:58N 49°38' W 001°37'0 0.1
2019-Jun-12 16:28N 49°38' W 001°37'0 0.0
2019-Jun-12 16:01N 49°38' W 001°37'0 0.0
2019-Jun-12 15:31N 49°38' W 001°37'0 0.0
2019-Jun-12 14:58N 49°38' W 001°37'0 0.0
2019-Jun-12 14:25N 49°38' W 001°37'0 0.0
2019-Jun-12 13:55N 49°38' W 001°37'0 0.0
2019-Jun-12 13:28N 49°38' W 001°37'0 0.0
2019-Jun-12 13:00N 49°38' W 001°37'0 0.0
2019-Jun-12 12:30N 49°38' W 001°37'0 0.0
2019-Jun-12 12:00N 49°38' W 001°37'0 0.0
2019-Jun-12 11:30N 49°38' W 001°37'0 0.0
2019-Jun-12 11:00N 49°38' W 001°37'0 0.0
2019-Jun-12 10:30N 49°38' W 001°37'0 0.0
2019-Jun-12 10:00N 49°38' W 001°37'0 0.0
2019-Jun-12 09:30N 49°38' W 001°37'0 0.0
2019-Jun-12 09:00N 49°38' W 001°37'0 0.0
2019-Jun-12 08:30N 49°38' W 001°37'0 0.0
2019-Jun-12 07:57N 49°38' W 001°37'0 0.0
2019-Jun-12 07:30N 49°38' W 001°37'0 0.0
2019-Jun-12 07:00N 49°38' W 001°37'0 0.0
2019-Jun-12 06:27N 49°38' W 001°37'0 0.0
2019-Jun-12 06:00N 49°38' W 001°37'0 0.0
2019-Jun-12 05:30N 49°38' W 001°37'0 0.0
2019-Jun-12 05:00N 49°38' W 001°37'0 0.0
2019-Jun-12 04:30N 49°38' W 001°37'0 0.0
2019-Jun-12 04:00N 49°38' W 001°37'0 0.0
2019-Jun-12 03:27N 49°38' W 001°37'0 0.0
2019-Jun-12 03:00N 49°38' W 001°37'0 0.0
2019-Jun-12 02:00N 49°38' W 001°37'0 0.0
2019-Jun-12 01:28N 49°38' W 001°37'0 0.0
2019-Jun-12 00:58N 49°38' W 001°37'0 0.0
2019-Jun-12 00:25N 49°38' W 001°37'0 0.0
2019-Jun-11 23:58N 49°38' W 001°37'0 0.0
2019-Jun-11 23:28N 49°38' W 001°37'0 0.0
2019-Jun-11 22:58N 49°38' W 001°37'0 0.0
2019-Jun-11 22:28N 49°38' W 001°37'0 0.0
2019-Jun-11 21:58N 49°38' W 001°37'0 0.0
2019-Jun-11 21:28N 49°38' W 001°37'0 0.0
2019-Jun-11 20:58N 49°38' W 001°37'0 0.0
2019-Jun-11 20:28N 49°38' W 001°37'0 0.0
2019-Jun-11 19:58N 49°38' W 001°37'0 0.0
2019-Jun-11 19:28N 49°38' W 001°37'0 0.0
2019-Jun-11 18:58N 49°38' W 001°37'0 0.0
2019-Jun-11 18:28N 49°38' W 001°37'0 0.0
2019-Jun-11 17:58N 49°38' W 001°37'0 0.0
2019-Jun-11 17:28N 49°38' W 001°37'0 0.0
2019-Jun-11 16:58N 49°38' W 001°37'0 0.0
2019-Jun-11 16:28N 49°38' W 001°37'0 0.0
2019-Jun-11 15:58N 49°38' W 001°37'0 0.0
2019-Jun-11 15:28N 49°38' W 001°37'0 0.0
2019-Jun-11 14:58N 49°38' W 001°37'0 0.0
2019-Jun-11 14:28N 49°38' W 001°37'0 0.0
2019-Jun-11 13:58N 49°38' W 001°37'0 0.0
2019-Jun-11 13:28N 49°38' W 001°37'0 0.0
2019-Jun-11 12:59N 49°38' W 001°37'0 0.0
2019-Jun-11 12:29N 49°38' W 001°37'0 0.0
2019-Jun-11 11:59N 49°38' W 001°37'0 0.0
2019-Jun-11 11:29N 49°38' W 001°37'0 0.0
2019-Jun-11 10:59N 49°38' W 001°37'0 0.0
2019-Jun-11 10:29N 49°38' W 001°37'0 0.0
2019-Jun-11 09:59N 49°38' W 001°37'0 0.0
2019-Jun-11 09:29N 49°38' W 001°37'0 0.0
2019-Jun-11 08:59N 49°38' W 001°37'0 0.0
2019-Jun-11 08:26N 49°38' W 001°37'0 0.0
2019-Jun-11 07:55N 49°38' W 001°37'0 0.0
2019-Jun-11 07:28N 49°38' W 001°37'0 0.0
2019-Jun-11 06:58N 49°38' W 001°37'0 0.0
2019-Jun-11 06:28N 49°38' W 001°37'0 0.0
2019-Jun-11 05:58N 49°38' W 001°37'0 0.0
2019-Jun-11 05:28N 49°38' W 001°37'0 0.0
2019-Jun-11 04:58N 49°38' W 001°37'0 0.0
2019-Jun-11 04:28N 49°38' W 001°37'0 0.0
2019-Jun-11 03:58N 49°38' W 001°37'0 0.0
2019-Jun-11 03:28N 49°38' W 001°37'0 0.0
2019-Jun-11 02:58N 49°38' W 001°37'0 0.0
2019-Jun-11 02:28N 49°38' W 001°37'0 0.0
2019-Jun-11 02:00N 49°38' W 001°37'0 0.0
2019-Jun-11 01:28N 49°38' W 001°37'0 0.0
2019-Jun-11 00:58N 49°38' W 001°37'0 0.0
2019-Jun-11 00:26N 49°38' W 001°37'0 0.0
2019-Jun-10 23:58N 49°38' W 001°37'0 0.0
2019-Jun-10 23:28N 49°38' W 001°37'0 0.0
2019-Jun-10 22:58N 49°38' W 001°37'0 0.0
2019-Jun-10 22:26N 49°38' W 001°37'0 0.0
2019-Jun-10 21:59N 49°38' W 001°37'0 0.0
2019-Jun-10 21:29N 49°38' W 001°37'0 0.0
2019-Jun-10 20:59N 49°38' W 001°37'0 0.0
2019-Jun-10 20:25N 49°38' W 001°37'0 0.0
2019-Jun-10 19:59N 49°38' W 001°37'0 0.0
2019-Jun-10 19:25N 49°38' W 001°37'0 0.0
2019-Jun-10 18:59N 49°38' W 001°37'0 0.0
2019-Jun-10 18:29N 49°38' W 001°37'0 0.0
2019-Jun-10 17:58N 49°38' W 001°37'0 0.0
2019-Jun-10 17:28N 49°38' W 001°37'0 0.0
2019-Jun-10 16:59N 49°38' W 001°37'0 0.0
2019-Jun-10 16:29N 49°38' W 001°37'0 0.0
2019-Jun-10 15:58N 49°38' W 001°37'0 0.0
2019-Jun-10 15:29N 49°38' W 001°37'0 0.0
2019-Jun-10 14:58N 49°38' W 001°37'0 0.0
2019-Jun-10 14:28N 49°38' W 001°37'0 0.0
2019-Jun-10 13:59N 49°38' W 001°37'0 0.0
2019-Jun-10 13:29N 49°38' W 001°37'0 0.1
2019-Jun-10 13:00N 49°38' W 001°37'2 3.5
2019-Jun-10 12:31N 49°40' W 001°37'0 0.2
2019-Jun-10 11:56N 49°40' W 001°37'0 0.0
2019-Jun-10 11:29N 49°40' W 001°37'0 0.0
2019-Jun-10 10:59N 49°40' W 001°37'0 0.0
2019-Jun-10 10:29N 49°40' W 001°37'0 0.0
2019-Jun-10 09:59N 49°40' W 001°37'0 0.0
2019-Jun-10 09:29N 49°40' W 001°37'0 0.0
2019-Jun-10 08:59N 49°40' W 001°37'0 0.0
2019-Jun-10 08:29N 49°40' W 001°37'0 0.0
2019-Jun-10 07:59N 49°40' W 001°37'0 0.0
2019-Jun-10 07:29N 49°40' W 001°37'0 0.0
2019-Jun-10 06:59N 49°40' W 001°37'0 0.0
2019-Jun-10 06:29N 49°40' W 001°37'1 2.2
2019-Jun-10 06:00N 49°40' W 001°38'2 4.9
2019-Jun-10 05:30N 49°42' W 001°41'2 4.7
2019-Jun-10 05:00N 49°44' W 001°43'1 2.9
2019-Jun-10 04:30N 49°45' W 001°43'2 3.8
2019-Jun-10 04:00N 49°47' W 001°44'2 4.7
2019-Jun-10 03:30N 49°48' W 001°40'1 1.4
2019-Jun-10 03:00N 49°48' W 001°39'3 5.2
2019-Jun-10 02:30N 49°47' W 001°43'3 5.8
2019-Jun-10 02:00N 49°46' W 001°47'3 5.3
2019-Jun-10 01:30N 49°47' W 001°51'4 7.4
2019-Jun-10 01:00N 49°48' W 001°57'3 7.0
2019-Jun-10 00:30N 49°49' W 002°02'2 4.5
2019-Jun-10 00:00N 49°50' W 002°05'4 7.5
2019-Jun-09 23:30N 49°51' W 002°11'4 7.6
2019-Jun-09 22:58N 49°52' W 002°17'4 7.4
2019-Jun-09 22:24N 49°52' W 002°23'3 7.3
2019-Jun-09 22:00N 49°52' W 002°28'3 7.0
2019-Jun-09 21:30N 49°51' W 002°33'3 6.5
2019-Jun-09 20:58N 49°50' W 002°38'3 6.0
2019-Jun-09 20:30N 49°49' W 002°42'3 5.6
2019-Jun-09 19:58N 49°48' W 002°47'2 5.2
2019-Jun-09 19:30N 49°48' W 002°50'2 5.0
2019-Jun-09 19:00N 49°47' W 002°54'2 4.8
2019-Jun-09 18:30N 49°46' W 002°57'3 4.8
2019-Jun-09 17:53N 49°45' W 003°02'5 4.9
2019-Jun-09 16:49N 49°43' W 003°09'  
Track history (hours):
 
Tides and Currents Weather Stations Pressure Air Temp Water Temp Dewpoint Dewpoint Depression Visibility Wind Speed Wind Dir Waves Ship Positions

STS Pogoria

Last reported at 2019-Jun-16 16:17 UTC. Time now 2019-Jun-17 18:40 UTC.
Position N 53°27' E 005°13'.

Length 47 m.

Type: Sailing vessel. MMSI: 261146000.

Date/timePositionNaut miles runAvg speedWind from/ knotsBaromVisibWave heightAir tempDewpointWater temp
2019-Jun-16 16:17N 53°27' E 005°13'2 6.5
2019-Jun-16 15:57N 53°26' E 005°09'3 7.1
2019-Jun-16 15:29N 53°25' E 005°04'5 6.7
2019-Jun-16 14:45N 53°22' E 004°57'15 5.9
2019-Jun-16 12:08N 53°09' E 004°44'1 4.9
2019-Jun-16 12:00N 53°09' E 004°43'2 4.3
2019-Jun-16 11:30N 53°07' E 004°41'2 4.0
2019-Jun-16 11:00N 53°06' E 004°38'2 4.3
2019-Jun-16 10:30N 53°05' E 004°35'2 4.3
2019-Jun-16 10:00N 53°04' E 004°32'2 4.0
2019-Jun-16 09:29N 53°03' E 004°28'2 3.9
2019-Jun-16 08:59N 53°02' E 004°27'2 3.9
2019-Jun-16 08:29N 52°60' E 004°25'2 4.1
2019-Jun-16 07:59N 52°58' E 004°24'2 4.4
2019-Jun-16 07:29N 52°56' E 004°23'1 2.8
2019-Jun-16 06:59N 52°55' E 004°23'3 5.6
2019-Jun-16 06:29N 52°52' E 004°23'4 7.1
2019-Jun-16 05:59N 52°48' E 004°22'4 7.3
2019-Jun-16 05:29N 52°45' E 004°22'10 7.6
2019-Jun-16 04:07N 52°34' E 004°22'1 7.6
2019-Jun-16 03:57N 52°33' E 004°22'3 6.8
2019-Jun-16 03:29N 52°30' E 004°23'4 7.4
2019-Jun-16 03:00N 52°26' E 004°22'4 8.3
2019-Jun-16 02:30N 52°22' E 004°20'4 8.8
2019-Jun-16 02:00N 52°18' E 004°19'4 8.9
2019-Jun-16 01:30N 52°14' E 004°17'4 8.7
2019-Jun-16 01:00N 52°10' E 004°14'4 8.7
2019-Jun-16 00:30N 52°07' E 004°09'4 8.2
2019-Jun-16 00:00N 52°03' E 004°05'4 8.0
2019-Jun-15 23:30N 52°01' E 004°00'3 6.9
2019-Jun-15 23:00N 51°59' E 003°56'3 6.1
2019-Jun-15 22:30N 51°57' E 003°52'41 5.4
2019-Jun-15 15:02N 51°29' E 003°04'3 7.0
2019-Jun-15 14:35N 51°26' E 003°02'1 7.2
2019-Jun-15 14:26N 51°25' E 003°03'9 2.0
2019-Jun-15 09:57N 51°19' E 003°12'3 5.0
2019-Jun-15 09:24N 51°16' E 003°13'2 0.5
2019-Jun-15 04:46N 51°14' E 003°14'0 0.0
2019-Jun-15 04:00N 51°14' E 003°14'0 0.0
2019-Jun-14 23:57N 51°14' E 003°14'0 0.0
2019-Jun-14 23:27N 51°14' E 003°14'0 0.0
2019-Jun-14 23:00N 51°14' E 003°14'0 0.0
2019-Jun-14 22:30N 51°14' E 003°14'0 0.0
2019-Jun-14 22:00N 51°14' E 003°14'0 0.0
2019-Jun-14 21:27N 51°14' E 003°14'0 0.0
2019-Jun-14 20:57N 51°14' E 003°14'0 0.0
2019-Jun-14 20:30N 51°14' E 003°14'0 0.0
2019-Jun-14 19:57N 51°14' E 003°14'0 0.0
2019-Jun-14 19:27N 51°14' E 003°14'0 0.0
2019-Jun-14 18:57N 51°14' E 003°14'0 0.0
2019-Jun-14 18:30N 51°14' E 003°14'0 0.0
2019-Jun-14 17:57N 51°14' E 003°14'0 0.0
2019-Jun-14 17:27N 51°14' E 003°14'0 0.0
2019-Jun-14 16:57N 51°14' E 003°14'0 0.0
2019-Jun-14 16:27N 51°14' E 003°14'9 1.2
2019-Jun-14 08:38N 51°23' E 003°10'2 7.2
2019-Jun-14 08:19N 51°24' E 003°07'2 7.0
2019-Jun-14 08:00N 51°24' E 003°03'4 6.0
2019-Jun-14 07:20N 51°22' E 002°58'2 5.1
2019-Jun-14 06:54N 51°22' E 002°54'2 3.7
2019-Jun-14 06:15N 51°22' E 002°50'0 1.6
2019-Jun-14 05:57N 51°22' E 002°50'1 2.6
2019-Jun-14 05:26N 51°22' E 002°47'1 2.8
2019-Jun-14 05:00N 51°22' E 002°46'2 3.1
2019-Jun-14 04:27N 51°21' E 002°43'2 3.2
2019-Jun-14 03:55N 51°21' E 002°40'1 3.4
2019-Jun-14 03:30N 51°21' E 002°38'1 1.7
2019-Jun-14 02:57N 51°22' E 002°36'1 1.3
2019-Jun-14 02:29N 51°22' E 002°36'1 2.3
2019-Jun-14 02:00N 51°22' E 002°34'2 4.0
2019-Jun-14 01:27N 51°21' E 002°30'3 5.1
2019-Jun-14 00:58N 51°20' E 002°27'3 5.7
2019-Jun-14 00:30N 51°18' E 002°25'3 5.4
2019-Jun-13 23:56N 51°16' E 002°22'3 6.6
2019-Jun-13 23:30N 51°15' E 002°17'3 6.3
2019-Jun-13 23:00N 51°13' E 002°13'3 6.1
2019-Jun-13 22:27N 51°10' E 002°10'4 6.8
2019-Jun-13 21:53N 51°07' E 002°06'3 7.0
2019-Jun-13 21:24N 51°06' E 002°01'2 5.6
2019-Jun-13 20:57N 51°05' E 001°57'6 6.6
2019-Jun-13 19:59N 51°02' E 001°48'87 5.8
2019-Jun-13 04:51N 50°08' E 000°01'3 8.4
2019-Jun-13 04:29N 50°07' W 000°03'5 8.9
2019-Jun-13 03:58N 50°05' W 000°10'4 8.6
2019-Jun-13 03:29N 50°03' W 000°16'4 8.2
2019-Jun-13 03:00N 50°02' W 000°22'4 7.9
2019-Jun-13 02:30N 49°60' W 000°27'4 7.4
2019-Jun-13 01:56N 49°58' W 000°33'4 6.6
2019-Jun-13 01:21N 49°57' W 000°39'10 5.8
2019-Jun-12 23:33N 49°53' W 000°53'1 5.2
2019-Jun-12 23:25N 49°52' W 000°54'2 5.0
2019-Jun-12 23:00N 49°52' W 000°57'2 4.7
2019-Jun-12 22:30N 49°51' W 001°01'2 4.5
2019-Jun-12 22:00N 49°50' W 001°04'2 4.4
2019-Jun-12 21:30N 49°49' W 001°07'2 4.3
2019-Jun-12 21:00N 49°49' W 001°10'2 4.2
2019-Jun-12 20:30N 49°48' W 001°13'2 4.5
2019-Jun-12 20:00N 49°47' W 001°16'2 4.6
2019-Jun-12 19:30N 49°46' W 001°20'2 5.0
2019-Jun-12 19:00N 49°45' W 001°23'3 5.8
2019-Jun-12 18:31N 49°44' W 001°28'3 6.6
2019-Jun-12 18:00N 49°42' W 001°32'3 6.4
2019-Jun-12 17:30N 49°40' W 001°36'2 4.6
2019-Jun-12 16:58N 49°38' W 001°37'0 0.1
2019-Jun-12 16:28N 49°38' W 001°37'0 0.0
2019-Jun-12 16:01N 49°38' W 001°37'0 0.0
2019-Jun-12 15:31N 49°38' W 001°37'0 0.0
2019-Jun-12 14:58N 49°38' W 001°37'0 0.0
2019-Jun-12 14:25N 49°38' W 001°37'0 0.0
2019-Jun-12 13:55N 49°38' W 001°37'0 0.0
2019-Jun-12 13:28N 49°38' W 001°37'0 0.0
2019-Jun-12 13:00N 49°38' W 001°37'0 0.0
2019-Jun-12 12:30N 49°38' W 001°37'0 0.0
2019-Jun-12 12:00N 49°38' W 001°37'0 0.0
2019-Jun-12 11:30N 49°38' W 001°37'0 0.0
2019-Jun-12 11:00N 49°38' W 001°37'0 0.0
2019-Jun-12 10:30N 49°38' W 001°37'0 0.0
2019-Jun-12 10:00N 49°38' W 001°37'0 0.0
2019-Jun-12 09:30N 49°38' W 001°37'0 0.0
2019-Jun-12 09:00N 49°38' W 001°37'0 0.0
2019-Jun-12 08:30N 49°38' W 001°37'0 0.0
2019-Jun-12 07:57N 49°38' W 001°37'0 0.0
2019-Jun-12 07:30N 49°38' W 001°37'0 0.0
2019-Jun-12 07:00N 49°38' W 001°37'0 0.0
2019-Jun-12 06:27N 49°38' W 001°37'0 0.0
2019-Jun-12 06:00N 49°38' W 001°37'0 0.0
2019-Jun-12 05:30N 49°38' W 001°37'0 0.0
2019-Jun-12 05:00N 49°38' W 001°37'0 0.0
2019-Jun-12 04:30N 49°38' W 001°37'0 0.0
2019-Jun-12 04:00N 49°38' W 001°37'0 0.0
2019-Jun-12 03:27N 49°38' W 001°37'0 0.0
2019-Jun-12 03:00N 49°38' W 001°37'0 0.0
2019-Jun-12 02:00N 49°38' W 001°37'0 0.0
2019-Jun-12 01:28N 49°38' W 001°37'0 0.0
2019-Jun-12 00:58N 49°38' W 001°37'0 0.0
2019-Jun-12 00:25N 49°38' W 001°37'0 0.0
2019-Jun-11 23:58N 49°38' W 001°37'0 0.0
2019-Jun-11 23:28N 49°38' W 001°37'0 0.0
2019-Jun-11 22:58N 49°38' W 001°37'0 0.0
2019-Jun-11 22:28N 49°38' W 001°37'0 0.0
2019-Jun-11 21:58N 49°38' W 001°37'0 0.0
2019-Jun-11 21:28N 49°38' W 001°37'0 0.0
2019-Jun-11 20:58N 49°38' W 001°37'0 0.0
2019-Jun-11 20:28N 49°38' W 001°37'0 0.0
2019-Jun-11 19:58N 49°38' W 001°37'0 0.0
2019-Jun-11 19:28N 49°38' W 001°37'0 0.0
2019-Jun-11 18:58N 49°38' W 001°37'0 0.0
2019-Jun-11 18:28N 49°38' W 001°37'0 0.0
2019-Jun-11 17:58N 49°38' W 001°37'0 0.0
2019-Jun-11 17:28N 49°38' W 001°37'0 0.0
2019-Jun-11 16:58N 49°38' W 001°37'0 0.0
2019-Jun-11 16:28N 49°38' W 001°37'0 0.0
2019-Jun-11 15:58N 49°38' W 001°37'0 0.0
2019-Jun-11 15:28N 49°38' W 001°37'0 0.0
2019-Jun-11 14:58N 49°38' W 001°37'0 0.0
2019-Jun-11 14:28N 49°38' W 001°37'0 0.0
2019-Jun-11 13:58N 49°38' W 001°37'0 0.0
2019-Jun-11 13:28N 49°38' W 001°37'0 0.0
2019-Jun-11 12:59N 49°38' W 001°37'0 0.0
2019-Jun-11 12:29N 49°38' W 001°37'0 0.0
2019-Jun-11 11:59N 49°38' W 001°37'0 0.0
2019-Jun-11 11:29N 49°38' W 001°37'0 0.0
2019-Jun-11 10:59N 49°38' W 001°37'0 0.0
2019-Jun-11 10:29N 49°38' W 001°37'0 0.0
2019-Jun-11 09:59N 49°38' W 001°37'0 0.0
2019-Jun-11 09:29N 49°38' W 001°37'0 0.0
2019-Jun-11 08:59N 49°38' W 001°37'0 0.0
2019-Jun-11 08:26N 49°38' W 001°37'0 0.0
2019-Jun-11 07:55N 49°38' W 001°37'0 0.0
2019-Jun-11 07:28N 49°38' W 001°37'0 0.0
2019-Jun-11 06:58N 49°38' W 001°37'0 0.0
2019-Jun-11 06:28N 49°38' W 001°37'0 0.0
2019-Jun-11 05:58N 49°38' W 001°37'0 0.0
2019-Jun-11 05:28N 49°38' W 001°37'0 0.0
2019-Jun-11 04:58N 49°38' W 001°37'0 0.0
2019-Jun-11 04:28N 49°38' W 001°37'0 0.0
2019-Jun-11 03:58N 49°38' W 001°37'0 0.0
2019-Jun-11 03:28N 49°38' W 001°37'0 0.0
2019-Jun-11 02:58N 49°38' W 001°37'0 0.0
2019-Jun-11 02:28N 49°38' W 001°37'0 0.0
2019-Jun-11 02:00N 49°38' W 001°37'0 0.0
2019-Jun-11 01:28N 49°38' W 001°37'0 0.0
2019-Jun-11 00:58N 49°38' W 001°37'0 0.0
2019-Jun-11 00:26N 49°38' W 001°37'0 0.0
2019-Jun-10 23:58N 49°38' W 001°37'0 0.0
2019-Jun-10 23:28N 49°38' W 001°37'0 0.0
2019-Jun-10 22:58N 49°38' W 001°37'0 0.0
2019-Jun-10 22:26N 49°38' W 001°37'0 0.0
2019-Jun-10 21:59N 49°38' W 001°37'0 0.0
2019-Jun-10 21:29N 49°38' W 001°37'0 0.0
2019-Jun-10 20:59N 49°38' W 001°37'0 0.0
2019-Jun-10 20:25N 49°38' W 001°37'0 0.0
2019-Jun-10 19:59N 49°38' W 001°37'0 0.0
2019-Jun-10 19:25N 49°38' W 001°37'0 0.0
2019-Jun-10 18:59N 49°38' W 001°37'0 0.0
2019-Jun-10 18:29N 49°38' W 001°37'0 0.0
2019-Jun-10 17:58N 49°38' W 001°37'0 0.0
2019-Jun-10 17:28N 49°38' W 001°37'0 0.0
2019-Jun-10 16:59N 49°38' W 001°37'0 0.0
2019-Jun-10 16:29N 49°38' W 001°37'0 0.0
2019-Jun-10 15:58N 49°38' W 001°37'0 0.0
2019-Jun-10 15:29N 49°38' W 001°37'0 0.0
2019-Jun-10 14:58N 49°38' W 001°37'0 0.0
2019-Jun-10 14:28N 49°38' W 001°37'0 0.0
2019-Jun-10 13:59N 49°38' W 001°37'0 0.0
2019-Jun-10 13:29N 49°38' W 001°37'0 0.1
2019-Jun-10 13:00N 49°38' W 001°37'2 3.5
2019-Jun-10 12:31N 49°40' W 001°37'0 0.2
2019-Jun-10 11:56N 49°40' W 001°37'0 0.0
2019-Jun-10 11:29N 49°40' W 001°37'0 0.0
2019-Jun-10 10:59N 49°40' W 001°37'0 0.0
2019-Jun-10 10:29N 49°40' W 001°37'0 0.0
2019-Jun-10 09:59N 49°40' W 001°37'0 0.0
2019-Jun-10 09:29N 49°40' W 001°37'0 0.0
2019-Jun-10 08:59N 49°40' W 001°37'0 0.0
2019-Jun-10 08:29N 49°40' W 001°37'0 0.0
2019-Jun-10 07:59N 49°40' W 001°37'0 0.0
2019-Jun-10 07:29N 49°40' W 001°37'0 0.0
2019-Jun-10 06:59N 49°40' W 001°37'0 0.0
2019-Jun-10 06:29N 49°40' W 001°37'1 2.2
2019-Jun-10 06:00N 49°40' W 001°38'2 4.9
2019-Jun-10 05:30N 49°42' W 001°41'2 4.7
2019-Jun-10 05:00N 49°44' W 001°43'1 2.9
2019-Jun-10 04:30N 49°45' W 001°43'2 3.8
2019-Jun-10 04:00N 49°47' W 001°44'2 4.7
2019-Jun-10 03:30N 49°48' W 001°40'1 1.4
2019-Jun-10 03:00N 49°48' W 001°39'3 5.2
2019-Jun-10 02:30N 49°47' W 001°43'3 5.8
2019-Jun-10 02:00N 49°46' W 001°47'3 5.3
2019-Jun-10 01:30N 49°47' W 001°51'4 7.4
2019-Jun-10 01:00N 49°48' W 001°57'3 7.0
2019-Jun-10 00:30N 49°49' W 002°02'2 4.5
2019-Jun-10 00:00N 49°50' W 002°05'4 7.5
2019-Jun-09 23:30N 49°51' W 002°11'4 7.6
2019-Jun-09 22:58N 49°52' W 002°17'4 7.4
2019-Jun-09 22:24N 49°52' W 002°23'3 7.3
2019-Jun-09 22:00N 49°52' W 002°28'3 7.0
2019-Jun-09 21:30N 49°51' W 002°33'3 6.5
2019-Jun-09 20:58N 49°50' W 002°38'3 6.0
2019-Jun-09 20:30N 49°49' W 002°42'3 5.6
2019-Jun-09 19:58N 49°48' W 002°47'2 5.2
2019-Jun-09 19:30N 49°48' W 002°50'2 5.0
2019-Jun-09 19:00N 49°47' W 002°54'2 4.8
2019-Jun-09 18:30N 49°46' W 002°57'3 4.8
2019-Jun-09 17:53N 49°45' W 003°02'5 4.9
2019-Jun-09 16:49N 49°43' W 003°09'  

Dump ship's entire track history